sensor_id;sensor_type;location;lat;lon;timestamp;pressure;altitude;pressure_sealevel;temperature;humidity
44140;BME280;29803;51.048;4.686;2022-09-01T00:00:28;101953.28;;;17.51;100.00
44140;BME280;29803;51.048;4.686;2022-09-01T00:02:59;101948.63;;;17.45;100.00
44140;BME280;29803;51.048;4.686;2022-09-01T00:05:30;101947.84;;;17.36;100.00
44140;BME280;29803;51.048;4.686;2022-09-01T00:08:03;101943.16;;;17.30;100.00
44140;BME280;29803;51.048;4.686;2022-09-01T00:10:34;101946.41;;;17.25;100.00
44140;BME280;29803;51.048;4.686;2022-09-01T00:13:05;101947.16;;;17.19;100.00
44140;BME280;29803;51.048;4.686;2022-09-01T00:15:36;101937.06;;;17.13;100.00
44140;BME280;29803;51.048;4.686;2022-09-01T00:18:06;101941.16;;;17.09;100.00
44140;BME280;29803;51.048;4.686;2022-09-01T00:20:37;101931.03;;;17.03;100.00
44140;BME280;29803;51.048;4.686;2022-09-01T00:23:07;101938.50;;;17.01;100.00
44140;BME280;29803;51.048;4.686;2022-09-01T00:25:38;101935.13;;;16.99;100.00
44140;BME280;29803;51.048;4.686;2022-09-01T00:28:09;101934.66;;;16.95;100.00
44140;BME280;29803;51.048;4.686;2022-09-01T00:30:39;101935.88;;;16.93;100.00
44140;BME280;29803;51.048;4.686;2022-09-01T00:33:10;101934.53;;;16.89;100.00
44140;BME280;29803;51.048;4.686;2022-09-01T00:35:40;101934.88;;;16.86;100.00
44140;BME280;29803;51.048;4.686;2022-09-01T00:38:11;101941.69;;;16.81;100.00
44140;BME280;29803;51.048;4.686;2022-09-01T00:40:41;101936.84;;;16.77;100.00
44140;BME280;29803;51.048;4.686;2022-09-01T00:46:23;101938.72;;;16.68;100.00
44140;BME280;29803;51.048;4.686;2022-09-01T00:48:59;101940.75;;;16.66;100.00
44140;BME280;29803;51.048;4.686;2022-09-01T00:51:32;101935.72;;;16.63;100.00
44140;BME280;29803;51.048;4.686;2022-09-01T00:54:06;101938.13;;;16.58;100.00
44140;BME280;29803;51.048;4.686;2022-09-01T00:56:39;101934.41;;;16.51;100.00
44140;BME280;29803;51.048;4.686;2022-09-01T00:59:11;101932.44;;;16.45;100.00
44140;BME280;29803;51.048;4.686;2022-09-01T01:01:42;101925.88;;;16.39;100.00
44140;BME280;29803;51.048;4.686;2022-09-01T01:04:12;101930.97;;;16.34;100.00
44140;BME280;29803;51.048;4.686;2022-09-01T01:06:47;101930.47;;;16.30;100.00
44140;BME280;29803;51.048;4.686;2022-09-01T01:09:39;101933.56;;;16.27;100.00
44140;BME280;29803;51.048;4.686;2022-09-01T01:12:12;101932.72;;;16.27;100.00
44140;BME280;29803;51.048;4.686;2022-09-01T01:14:48;101925.44;;;16.27;100.00
44140;BME280;29803;51.048;4.686;2022-09-01T01:17:21;101922.72;;;16.27;100.00
44140;BME280;29803;51.048;4.686;2022-09-01T01:19:57;101924.59;;;16.27;100.00
44140;BME280;29803;51.048;4.686;2022-09-01T01:23:07;101931.19;;;16.24;100.00
44140;BME280;29803;51.048;4.686;2022-09-01T01:25:54;101923.78;;;16.18;100.00
44140;BME280;29803;51.048;4.686;2022-09-01T01:28:29;101927.22;;;16.12;100.00
44140;BME280;29803;51.048;4.686;2022-09-01T01:31:05;101928.06;;;16.04;100.00
44140;BME280;29803;51.048;4.686;2022-09-01T01:33:43;101932.16;;;16.00;100.00
44140;BME280;29803;51.048;4.686;2022-09-01T01:36:18;101928.78;;;15.98;100.00
44140;BME280;29803;51.048;4.686;2022-09-01T01:38:49;101936.22;;;15.96;100.00
44140;BME280;29803;51.048;4.686;2022-09-01T01:41:19;101934.91;;;15.92;100.00
44140;BME280;29803;51.048;4.686;2022-09-01T01:43:51;101934.41;;;15.89;100.00
44140;BME280;29803;51.048;4.686;2022-09-01T01:46:21;101936.59;;;15.85;100.00
44140;BME280;29803;51.048;4.686;2022-09-01T01:48:55;101933.44;;;15.82;100.00
44140;BME280;29803;51.048;4.686;2022-09-01T01:51:27;101936.28;;;15.80;100.00
44140;BME280;29803;51.048;4.686;2022-09-01T01:54:00;101931.41;;;15.75;100.00
44140;BME280;29803;51.048;4.686;2022-09-01T01:56:34;101937.16;;;15.72;100.00
44140;BME280;29803;51.048;4.686;2022-09-01T01:59:10;101929.38;;;15.69;100.00
44140;BME280;29803;51.048;4.686;2022-09-01T02:01:45;101935.81;;;15.68;100.00
44140;BME280;29803;51.048;4.686;2022-09-01T02:04:34;101938.34;;;15.70;100.00
44140;BME280;29803;51.048;4.686;2022-09-01T02:07:08;101932.09;;;15.69;100.00
44140;BME280;29803;51.048;4.686;2022-09-01T02:09:41;101945.44;;;15.71;100.00
44140;BME280;29803;51.048;4.686;2022-09-01T02:12:15;101935.97;;;15.75;100.00
44140;BME280;29803;51.048;4.686;2022-09-01T02:14:48;101934.78;;;15.77;100.00
44140;BME280;29803;51.048;4.686;2022-09-01T02:17:20;101937.13;;;15.80;100.00
44140;BME280;29803;51.048;4.686;2022-09-01T02:19:51;101940.53;;;15.83;100.00
44140;BME280;29803;51.048;4.686;2022-09-01T02:22:26;101936.78;;;15.84;100.00
44140;BME280;29803;51.048;4.686;2022-09-01T02:24:57;101947.63;;;15.84;100.00
44140;BME280;29803;51.048;4.686;2022-09-01T02:27:31;101943.22;;;15.83;100.00
44140;BME280;29803;51.048;4.686;2022-09-01T02:30:03;101940.66;;;15.81;100.00
44140;BME280;29803;51.048;4.686;2022-09-01T02:32:36;101940.19;;;15.77;100.00
44140;BME280;29803;51.048;4.686;2022-09-01T02:35:08;101938.66;;;15.75;100.00
44140;BME280;29803;51.048;4.686;2022-09-01T02:37:39;101932.59;;;15.73;100.00
44140;BME280;29803;51.048;4.686;2022-09-01T02:40:10;101934.63;;;15.71;100.00
44140;BME280;29803;51.048;4.686;2022-09-01T02:42:41;101924.34;;;15.66;100.00
44140;BME280;29803;51.048;4.686;2022-09-01T02:45:12;101931.91;;;15.63;100.00
44140;BME280;29803;51.048;4.686;2022-09-01T02:47:44;101927.22;;;15.57;100.00
44140;BME280;29803;51.048;4.686;2022-09-01T02:50:17;101929.75;;;15.50;100.00
44140;BME280;29803;51.048;4.686;2022-09-01T02:52:48;101926.72;;;15.45;100.00
44140;BME280;29803;51.048;4.686;2022-09-01T02:55:20;101926.22;;;15.41;100.00
44140;BME280;29803;51.048;4.686;2022-09-01T02:57:52;101920.81;;;15.41;100.00
44140;BME280;29803;51.048;4.686;2022-09-01T03:00:42;101919.44;;;15.45;100.00
44140;BME280;29803;51.048;4.686;2022-09-01T03:03:12;101921.16;;;15.46;100.00
44140;BME280;29803;51.048;4.686;2022-09-01T03:05:43;101909.81;;;15.43;100.00
44140;BME280;29803;51.048;4.686;2022-09-01T03:08:13;101908.47;;;15.39;100.00
44140;BME280;29803;51.048;4.686;2022-09-01T03:10:45;101909.16;;;15.33;100.00
44140;BME280;29803;51.048;4.686;2022-09-01T03:13:22;101913.56;;;15.25;100.00
44140;BME280;29803;51.048;4.686;2022-09-01T03:15:53;101917.13;;;15.18;100.00
44140;BME280;29803;51.048;4.686;2022-09-01T03:18:23;101903.13;;;15.06;100.00
44140;BME280;29803;51.048;4.686;2022-09-01T03:20:54;101907.84;;;14.96;100.00
44140;BME280;29803;51.048;4.686;2022-09-01T03:23:25;101902.63;;;14.86;100.00
44140;BME280;29803;51.048;4.686;2022-09-01T03:25:57;101904.78;;;14.74;100.00
44140;BME280;29803;51.048;4.686;2022-09-01T03:28:27;101904.81;;;14.66;100.00
44140;BME280;29803;51.048;4.686;2022-09-01T03:30:58;101905.13;;;14.63;100.00
44140;BME280;29803;51.048;4.686;2022-09-01T03:33:29;101897.53;;;14.59;100.00
44140;BME280;29803;51.048;4.686;2022-09-01T03:35:59;101905.94;;;14.56;100.00
44140;BME280;29803;51.048;4.686;2022-09-01T03:38:30;101905.59;;;14.50;100.00
44140;BME280;29803;51.048;4.686;2022-09-01T03:41:03;101904.75;;;14.42;100.00
44140;BME280;29803;51.048;4.686;2022-09-01T03:43:35;101905.72;;;14.33;100.00
44140;BME280;29803;51.048;4.686;2022-09-01T03:46:05;101904.00;;;14.23;100.00
44140;BME280;29803;51.048;4.686;2022-09-01T03:48:38;101896.88;;;14.14;100.00
44140;BME280;29803;51.048;4.686;2022-09-01T03:51:09;101906.66;;;14.07;100.00
44140;BME280;29803;51.048;4.686;2022-09-01T03:53:43;101906.31;;;14.02;100.00
44140;BME280;29803;51.048;4.686;2022-09-01T03:56:15;101905.94;;;13.97;100.00
44140;BME280;29803;51.048;4.686;2022-09-01T03:58:45;101901.88;;;13.93;100.00
44140;BME280;29803;51.048;4.686;2022-09-01T04:01:16;101911.31;;;13.89;100.00
44140;BME280;29803;51.048;4.686;2022-09-01T04:03:47;101902.00;;;13.83;100.00
44140;BME280;29803;51.048;4.686;2022-09-01T04:06:18;101906.19;;;13.78;100.00
44140;BME280;29803;51.048;4.686;2022-09-01T04:08:51;101912.75;;;13.75;100.00
44140;BME280;29803;51.048;4.686;2022-09-01T04:11:32;101911.41;;;13.71;100.00
44140;BME280;29803;51.048;4.686;2022-09-01T04:14:02;101906.16;;;13.69;100.00
44140;BME280;29803;51.048;4.686;2022-09-01T04:16:33;101909.19;;;13.66;100.00
44140;BME280;29803;51.048;4.686;2022-09-01T04:19:24;101909.81;;;13.60;100.00
44140;BME280;29803;51.048;4.686;2022-09-01T04:21:58;101907.44;;;13.57;100.00
44140;BME280;29803;51.048;4.686;2022-09-01T04:24:30;101908.59;;;13.55;100.00
44140;BME280;29803;51.048;4.686;2022-09-01T04:27:02;101916.00;;;13.53;100.00
44140;BME280;29803;51.048;4.686;2022-09-01T04:29:33;101912.31;;;13.54;100.00
44140;BME280;29803;51.048;4.686;2022-09-01T04:32:06;101916.69;;;13.55;100.00
44140;BME280;29803;51.048;4.686;2022-09-01T04:34:38;101903.38;;;13.53;100.00
44140;BME280;29803;51.048;4.686;2022-09-01T04:37:12;101916.19;;;13.51;100.00
44140;BME280;29803;51.048;4.686;2022-09-01T04:39:59;101919.34;;;13.46;100.00
44140;BME280;29803;51.048;4.686;2022-09-01T04:42:30;101910.56;;;13.44;100.00
44140;BME280;29803;51.048;4.686;2022-09-01T04:45:01;101905.66;;;13.40;100.00
44140;BME280;29803;51.048;4.686;2022-09-01T04:47:32;101904.13;;;13.37;100.00
44140;BME280;29803;51.048;4.686;2022-09-01T04:50:05;101910.66;;;13.35;100.00
44140;BME280;29803;51.048;4.686;2022-09-01T04:52:44;101908.13;;;13.33;100.00
44140;BME280;29803;51.048;4.686;2022-09-01T04:55:14;101910.00;;;13.33;100.00
44140;BME280;29803;51.048;4.686;2022-09-01T04:58:04;101903.59;;;13.34;100.00
44140;BME280;29803;51.048;4.686;2022-09-01T05:00:34;101902.75;;;13.33;100.00
44140;BME280;29803;51.048;4.686;2022-09-01T05:03:05;101905.97;;;13.37;100.00
44140;BME280;29803;51.048;4.686;2022-09-01T05:05:38;101906.66;;;13.39;100.00
44140;BME280;29803;51.048;4.686;2022-09-01T05:08:16;101902.09;;;13.39;100.00
44140;BME280;29803;51.048;4.686;2022-09-01T05:10:49;101909.03;;;13.42;100.00
44140;BME280;29803;51.048;4.686;2022-09-01T05:13:22;101900.78;;;13.43;100.00
44140;BME280;29803;51.048;4.686;2022-09-01T05:16:12;101901.50;;;13.45;100.00
44140;BME280;29803;51.048;4.686;2022-09-01T05:18:46;101899.47;;;13.47;100.00
44140;BME280;29803;51.048;4.686;2022-09-01T05:21:19;101898.28;;;13.50;100.00
44140;BME280;29803;51.048;4.686;2022-09-01T05:23:56;101902.53;;;13.53;100.00
44140;BME280;29803;51.048;4.686;2022-09-01T05:26:30;101903.06;;;13.56;100.00
44140;BME280;29803;51.048;4.686;2022-09-01T05:29:04;101904.41;;;13.60;100.00
44140;BME280;29803;51.048;4.686;2022-09-01T05:31:41;101896.69;;;13.65;100.00
44140;BME280;29803;51.048;4.686;2022-09-01T05:34:13;101896.06;;;13.71;100.00
44140;BME280;29803;51.048;4.686;2022-09-01T05:36:45;101896.44;;;13.77;100.00
44140;BME280;29803;51.048;4.686;2022-09-01T05:39:19;101903.88;;;13.83;100.00
44140;BME280;29803;51.048;4.686;2022-09-01T05:41:51;101898.00;;;13.87;100.00
44140;BME280;29803;51.048;4.686;2022-09-01T05:44:23;101896.50;;;13.93;100.00
44140;BME280;29803;51.048;4.686;2022-09-01T05:46:53;101893.97;;;13.99;100.00
44140;BME280;29803;51.048;4.686;2022-09-01T05:49:25;101896.88;;;14.06;100.00
44140;BME280;29803;51.048;4.686;2022-09-01T05:51:57;101898.13;;;14.28;100.00
44140;BME280;29803;51.048;4.686;2022-09-01T05:54:28;101904.31;;;14.71;100.00
44140;BME280;29803;51.048;4.686;2022-09-01T05:56:58;101901.91;;;15.25;100.00
44140;BME280;29803;51.048;4.686;2022-09-01T05:59:30;101904.72;;;15.72;100.00
44140;BME280;29803;51.048;4.686;2022-09-01T06:02:02;101905.28;;;15.99;100.00
44140;BME280;29803;51.048;4.686;2022-09-01T06:04:33;101904.44;;;15.90;100.00
44140;BME280;29803;51.048;4.686;2022-09-01T06:07:04;101911.16;;;15.71;100.00
44140;BME280;29803;51.048;4.686;2022-09-01T06:09:40;101912.16;;;15.62;100.00
44140;BME280;29803;51.048;4.686;2022-09-01T06:12:12;101917.91;;;15.67;100.00
44140;BME280;29803;51.048;4.686;2022-09-01T06:14:59;101919.28;;;15.63;100.00
44140;BME280;29803;51.048;4.686;2022-09-01T06:17:30;101918.91;;;15.50;100.00
44140;BME280;29803;51.048;4.686;2022-09-01T06:20:01;101923.53;;;15.41;100.00
44140;BME280;29803;51.048;4.686;2022-09-01T06:22:39;101925.72;;;15.29;100.00
44140;BME280;29803;51.048;4.686;2022-09-01T06:25:10;101914.75;;;15.23;100.00
44140;BME280;29803;51.048;4.686;2022-09-01T06:27:40;101917.09;;;15.34;100.00
44140;BME280;29803;51.048;4.686;2022-09-01T06:30:16;101921.97;;;15.63;100.00
44140;BME280;29803;51.048;4.686;2022-09-01T06:32:49;101918.78;;;16.07;100.00
44140;BME280;29803;51.048;4.686;2022-09-01T06:35:22;101920.50;;;16.31;100.00
44140;BME280;29803;51.048;4.686;2022-09-01T06:37:58;101921.16;;;16.33;100.00
44140;BME280;29803;51.048;4.686;2022-09-01T06:40:31;101919.34;;;16.25;100.00
44140;BME280;29803;51.048;4.686;2022-09-01T06:43:03;101922.25;;;16.16;100.00
44140;BME280;29803;51.048;4.686;2022-09-01T06:45:40;101930.03;;;16.19;100.00
44140;BME280;29803;51.048;4.686;2022-09-01T06:48:11;101924.59;;;16.27;100.00
44140;BME280;29803;51.048;4.686;2022-09-01T06:50:45;101932.03;;;16.25;100.00
44140;BME280;29803;51.048;4.686;2022-09-01T06:53:15;101936.13;;;16.21;100.00
44140;BME280;29803;51.048;4.686;2022-09-01T06:55:48;101934.97;;;16.15;100.00
44140;BME280;29803;51.048;4.686;2022-09-01T06:58:18;101935.13;;;16.45;100.00
44140;BME280;29803;51.048;4.686;2022-09-01T07:00:49;101942.28;;;16.92;100.00
44140;BME280;29803;51.048;4.686;2022-09-01T07:03:20;101942.22;;;17.23;100.00
44140;BME280;29803;51.048;4.686;2022-09-01T07:05:52;101947.13;;;17.72;100.00
44140;BME280;29803;51.048;4.686;2022-09-01T07:08:22;101946.06;;;18.32;100.00
44140;BME280;29803;51.048;4.686;2022-09-01T07:10:53;101940.44;;;18.84;100.00
44140;BME280;29803;51.048;4.686;2022-09-01T07:13:25;101945.88;;;19.62;100.00
44140;BME280;29803;51.048;4.686;2022-09-01T07:15:56;101948.16;;;20.41;100.00
44140;BME280;29803;51.048;4.686;2022-09-01T07:18:28;101951.09;;;21.34;100.00
44140;BME280;29803;51.048;4.686;2022-09-01T07:21:00;101957.19;;;22.27;100.00
44140;BME280;29803;51.048;4.686;2022-09-01T07:23:36;101950.84;;;23.10;100.00
44140;BME280;29803;51.048;4.686;2022-09-01T07:26:08;101951.06;;;23.76;98.56
44140;BME280;29803;51.048;4.686;2022-09-01T07:28:39;101952.38;;;24.11;95.03
44140;BME280;29803;51.048;4.686;2022-09-01T07:31:17;101959.03;;;24.33;90.98
44140;BME280;29803;51.048;4.686;2022-09-01T07:33:51;101955.50;;;24.63;89.38
44140;BME280;29803;51.048;4.686;2022-09-01T07:36:22;101956.69;;;24.97;90.49
44140;BME280;29803;51.048;4.686;2022-09-01T07:38:52;101957.59;;;25.21;86.29
44140;BME280;29803;51.048;4.686;2022-09-01T07:41:24;101954.38;;;25.36;86.93
44140;BME280;29803;51.048;4.686;2022-09-01T07:43:55;101958.66;;;25.55;81.25
44140;BME280;29803;51.048;4.686;2022-09-01T07:46:26;101963.22;;;25.61;79.61
44140;BME280;29803;51.048;4.686;2022-09-01T07:48:59;101953.16;;;25.55;80.82
44140;BME280;29803;51.048;4.686;2022-09-01T07:51:30;101957.00;;;25.66;81.39
44140;BME280;29803;51.048;4.686;2022-09-01T07:54:05;101960.81;;;25.53;81.36
44140;BME280;29803;51.048;4.686;2022-09-01T07:56:35;101955.81;;;25.38;81.22
44140;BME280;29803;51.048;4.686;2022-09-01T07:59:06;101962.13;;;25.39;80.27
44140;BME280;29803;51.048;4.686;2022-09-01T08:01:38;101950.09;;;25.51;80.43
44140;BME280;29803;51.048;4.686;2022-09-01T08:04:09;101956.41;;;25.87;80.28
44140;BME280;29803;51.048;4.686;2022-09-01T08:06:40;101959.91;;;26.23;76.49
44140;BME280;29803;51.048;4.686;2022-09-01T08:09:11;101964.06;;;26.25;75.78
44140;BME280;29803;51.048;4.686;2022-09-01T08:11:42;101957.25;;;26.28;76.76
44140;BME280;29803;51.048;4.686;2022-09-01T08:14:14;101955.69;;;26.44;75.15
44140;BME280;29803;51.048;4.686;2022-09-01T08:16:44;101952.78;;;26.50;74.65
44140;BME280;29803;51.048;4.686;2022-09-01T08:19:15;101951.75;;;26.68;74.19
44140;BME280;29803;51.048;4.686;2022-09-01T08:21:47;101954.41;;;26.63;71.44
44140;BME280;29803;51.048;4.686;2022-09-01T08:24:18;101949.72;;;26.64;73.25
44140;BME280;29803;51.048;4.686;2022-09-01T08:26:48;101955.06;;;26.70;71.83
44140;BME280;29803;51.048;4.686;2022-09-01T08:29:19;101960.91;;;26.74;70.16
44140;BME280;29803;51.048;4.686;2022-09-01T08:31:49;101955.69;;;26.72;71.97
44140;BME280;29803;51.048;4.686;2022-09-01T08:34:20;101949.91;;;26.74;72.08
44140;BME280;29803;51.048;4.686;2022-09-01T08:36:51;101949.19;;;26.95;71.76
44140;BME280;29803;51.048;4.686;2022-09-01T08:39:21;101947.31;;;27.13;70.69
44140;BME280;29803;51.048;4.686;2022-09-01T08:42:14;101941.59;;;27.02;68.20
44140;BME280;29803;51.048;4.686;2022-09-01T08:44:54;101941.00;;;27.00;70.94
44140;BME280;29803;51.048;4.686;2022-09-01T08:47:28;101940.50;;;27.03;67.63
44140;BME280;29803;51.048;4.686;2022-09-01T08:50:00;101944.50;;;26.96;68.77
44140;BME280;29803;51.048;4.686;2022-09-01T08:52:34;101943.97;;;27.27;68.86
44140;BME280;29803;51.048;4.686;2022-09-01T08:55:13;101940.47;;;27.32;66.96
44140;BME280;29803;51.048;4.686;2022-09-01T08:57:46;101942.13;;;27.33;65.62
44140;BME280;29803;51.048;4.686;2022-09-01T09:00:20;101940.25;;;27.55;66.12
44140;BME280;29803;51.048;4.686;2022-09-01T09:06:09;101943.53;;;27.91;65.18
44140;BME280;29803;51.048;4.686;2022-09-01T09:11:45;101929.75;;;28.13;63.79
44140;BME280;29803;51.048;4.686;2022-09-01T09:17:22;101930.84;;;28.61;64.15
44140;BME280;29803;51.048;4.686;2022-09-01T09:19:56;101924.81;;;28.64;61.30
44140;BME280;29803;51.048;4.686;2022-09-01T09:22:26;101924.03;;;28.69;61.94
44140;BME280;29803;51.048;4.686;2022-09-01T09:25:11;101918.22;;;28.70;62.03
44140;BME280;29803;51.048;4.686;2022-09-01T09:27:47;101922.53;;;28.88;61.61
44140;BME280;29803;51.048;4.686;2022-09-01T09:30:21;101920.50;;;29.05;59.63
44140;BME280;29803;51.048;4.686;2022-09-01T09:33:04;101918.88;;;29.09;58.63
44140;BME280;29803;51.048;4.686;2022-09-01T09:35:51;101919.19;;;28.86;57.02
44140;BME280;29803;51.048;4.686;2022-09-01T09:38:24;101912.16;;;28.68;55.99
44140;BME280;29803;51.048;4.686;2022-09-01T09:41:26;101911.22;;;28.57;56.06
44140;BME280;29803;51.048;4.686;2022-09-01T09:44:02;101903.66;;;28.75;57.00
44140;BME280;29803;51.048;4.686;2022-09-01T09:46:37;101899.78;;;29.03;55.21
44140;BME280;29803;51.048;4.686;2022-09-01T09:52:14;101900.97;;;28.53;52.46
44140;BME280;29803;51.048;4.686;2022-09-01T09:55:01;101895.94;;;28.23;51.10
44140;BME280;29803;51.048;4.686;2022-09-01T09:57:38;101892.53;;;28.16;49.66
44140;BME280;29803;51.048;4.686;2022-09-01T10:00:30;101901.22;;;28.02;50.63
44140;BME280;29803;51.048;4.686;2022-09-01T10:03:05;101897.38;;;28.03;50.77
44140;BME280;29803;51.048;4.686;2022-09-01T10:10:58;101884.34;;;27.38;49.65
44140;BME280;29803;51.048;4.686;2022-09-01T10:13:30;101890.34;;;27.35;50.42
44140;BME280;29803;51.048;4.686;2022-09-01T10:16:05;101887.09;;;27.04;49.56
44140;BME280;29803;51.048;4.686;2022-09-01T10:18:37;101886.19;;;26.82;50.30
44140;BME280;29803;51.048;4.686;2022-09-01T10:21:14;101878.50;;;27.01;50.56
44140;BME280;29803;51.048;4.686;2022-09-01T10:23:45;101875.59;;;27.24;51.89
44140;BME280;29803;51.048;4.686;2022-09-01T10:26:22;101890.53;;;27.28;49.34
44140;BME280;29803;51.048;4.686;2022-09-01T10:29:00;101877.94;;;27.32;51.51
44140;BME280;29803;51.048;4.686;2022-09-01T10:31:35;101885.19;;;27.39;49.30
44140;BME280;29803;51.048;4.686;2022-09-01T10:34:12;101881.16;;;27.46;50.36
44140;BME280;29803;51.048;4.686;2022-09-01T10:36:46;101884.44;;;27.65;51.15
44140;BME280;29803;51.048;4.686;2022-09-01T10:39:18;101882.00;;;27.69;48.79
44140;BME280;29803;51.048;4.686;2022-09-01T10:41:52;101878.09;;;27.81;49.69
44140;BME280;29803;51.048;4.686;2022-09-01T10:44:55;101876.72;;;27.84;49.47
44140;BME280;29803;51.048;4.686;2022-09-01T10:47:28;101879.66;;;27.99;48.59
44140;BME280;29803;51.048;4.686;2022-09-01T10:50:08;101873.69;;;27.85;47.59
44140;BME280;29803;51.048;4.686;2022-09-01T10:52:54;101874.72;;;27.41;47.72
44140;BME280;29803;51.048;4.686;2022-09-01T10:55:39;101874.41;;;27.37;48.52
44140;BME280;29803;51.048;4.686;2022-09-01T10:58:33;101864.16;;;27.32;50.08
44140;BME280;29803;51.048;4.686;2022-09-01T11:01:06;101869.75;;;27.59;50.53
44140;BME280;29803;51.048;4.686;2022-09-01T11:03:48;101855.75;;;27.83;50.04
44140;BME280;29803;51.048;4.686;2022-09-01T11:09:32;101864.03;;;27.83;50.33
44140;BME280;29803;51.048;4.686;2022-09-01T11:14:56;101864.56;;;27.63;49.68
44140;BME280;29803;51.048;4.686;2022-09-01T11:17:53;101855.13;;;27.37;50.12
44140;BME280;29803;51.048;4.686;2022-09-01T11:34:10;101861.50;;;27.21;49.45
44140;BME280;29803;51.048;4.686;2022-09-01T11:39:33;101867.94;;;26.93;51.41
44140;BME280;29803;51.048;4.686;2022-09-01T11:42:14;101858.25;;;27.07;51.27
44140;BME280;29803;51.048;4.686;2022-09-01T11:44:54;101859.75;;;27.15;51.31
44140;BME280;29803;51.048;4.686;2022-09-01T11:47:32;101861.13;;;27.34;50.82
44140;BME280;29803;51.048;4.686;2022-09-01T11:50:07;101855.84;;;27.49;49.49
44140;BME280;29803;51.048;4.686;2022-09-01T11:52:56;101857.69;;;27.44;48.71
44140;BME280;29803;51.048;4.686;2022-09-01T11:55:31;101854.03;;;27.60;50.07
44140;BME280;29803;51.048;4.686;2022-09-01T11:58:03;101846.94;;;27.86;50.08
44140;BME280;29803;51.048;4.686;2022-09-01T12:00:38;101847.81;;;28.13;50.76
44140;BME280;29803;51.048;4.686;2022-09-01T12:03:28;101853.06;;;28.37;49.40
44140;BME280;29803;51.048;4.686;2022-09-01T12:06:02;101848.47;;;28.48;48.20
44140;BME280;29803;51.048;4.686;2022-09-01T12:08:38;101849.81;;;28.45;47.44
44140;BME280;29803;51.048;4.686;2022-09-01T12:11:12;101846.06;;;28.29;48.00
44140;BME280;29803;51.048;4.686;2022-09-01T12:14:07;101850.25;;;28.10;47.78
44140;BME280;29803;51.048;4.686;2022-09-01T12:16:39;101839.03;;;28.17;48.22
44140;BME280;29803;51.048;4.686;2022-09-01T12:19:23;101831.28;;;28.41;47.96
44140;BME280;29803;51.048;4.686;2022-09-01T12:22:14;101832.28;;;28.61;49.46
44140;BME280;29803;51.048;4.686;2022-09-01T12:24:49;101831.66;;;28.86;47.71
44140;BME280;29803;51.048;4.686;2022-09-01T12:27:20;101829.84;;;28.97;48.13
44140;BME280;29803;51.048;4.686;2022-09-01T12:29:52;101822.25;;;29.20;46.50
44140;BME280;29803;51.048;4.686;2022-09-01T12:32:23;101822.22;;;29.14;45.30
44140;BME280;29803;51.048;4.686;2022-09-01T12:35:14;101821.34;;;29.09;45.48
44140;BME280;29803;51.048;4.686;2022-09-01T12:37:45;101819.44;;;28.72;45.54
44140;BME280;29803;51.048;4.686;2022-09-01T12:40:34;101822.31;;;28.28;46.21
44140;BME280;29803;51.048;4.686;2022-09-01T12:43:05;101814.94;;;28.07;46.25
44140;BME280;29803;51.048;4.686;2022-09-01T12:48:06;101824.50;;;27.99;47.27
44140;BME280;29803;51.048;4.686;2022-09-01T12:50:53;101818.53;;;28.07;47.33
44140;BME280;29803;51.048;4.686;2022-09-01T12:53:26;101817.94;;;28.05;45.85
44140;BME280;29803;51.048;4.686;2022-09-01T12:59:20;101821.41;;;28.18;46.02
44140;BME280;29803;51.048;4.686;2022-09-01T13:01:51;101818.75;;;27.79;45.73
44140;BME280;29803;51.048;4.686;2022-09-01T13:07:00;101809.88;;;27.72;47.41
44140;BME280;29803;51.048;4.686;2022-09-01T13:09:31;101801.13;;;27.58;46.56
44140;BME280;29803;51.048;4.686;2022-09-01T13:12:20;101806.16;;;27.22;46.05
44140;BME280;29803;51.048;4.686;2022-09-01T13:14:50;101805.78;;;26.80;46.37
44140;BME280;29803;51.048;4.686;2022-09-01T13:17:22;101805.38;;;26.54;46.77
44140;BME280;29803;51.048;4.686;2022-09-01T13:19:53;101804.44;;;26.66;47.73
44140;BME280;29803;51.048;4.686;2022-09-01T13:22:23;101800.50;;;26.95;47.66
44140;BME280;29803;51.048;4.686;2022-09-01T13:24:54;101788.47;;;27.40;47.36
44140;BME280;29803;51.048;4.686;2022-09-01T13:27:24;101782.97;;;27.84;47.05
44140;BME280;29803;51.048;4.686;2022-09-01T13:29:55;101781.53;;;28.03;45.97
44140;BME280;29803;51.048;4.686;2022-09-01T13:32:26;101781.16;;;28.22;45.44
44140;BME280;29803;51.048;4.686;2022-09-01T13:34:56;101775.94;;;28.25;45.50
44140;BME280;29803;51.048;4.686;2022-09-01T13:37:27;101774.16;;;28.41;44.37
44140;BME280;29803;51.048;4.686;2022-09-01T13:39:57;101770.13;;;28.54;44.72
44140;BME280;29803;51.048;4.686;2022-09-01T13:42:28;101775.97;;;28.57;43.22
44140;BME280;29803;51.048;4.686;2022-09-01T13:44:58;101773.41;;;28.51;43.57
44140;BME280;29803;51.048;4.686;2022-09-01T13:47:30;101770.28;;;28.37;43.47
44140;BME280;29803;51.048;4.686;2022-09-01T13:50:00;101768.47;;;28.26;42.95
44140;BME280;29803;51.048;4.686;2022-09-01T13:52:32;101766.81;;;28.25;43.04
44140;BME280;29803;51.048;4.686;2022-09-01T13:55:04;101763.09;;;28.09;41.77
44140;BME280;29803;51.048;4.686;2022-09-01T13:57:35;101758.44;;;27.82;42.22
44140;BME280;29803;51.048;4.686;2022-09-01T14:00:08;101761.22;;;27.66;43.00
44140;BME280;29803;51.048;4.686;2022-09-01T14:02:43;101760.34;;;27.60;42.31
44140;BME280;29803;51.048;4.686;2022-09-01T14:05:21;101761.44;;;27.59;42.67
44140;BME280;29803;51.048;4.686;2022-09-01T14:07:53;101749.78;;;27.74;43.63
44140;BME280;29803;51.048;4.686;2022-09-01T14:10:25;101749.63;;;27.85;42.51
44140;BME280;29803;51.048;4.686;2022-09-01T14:12:55;101753.25;;;27.91;42.75